createdAt,value
2022-10-19T00:00:13.048Z,3.20
2022-10-19T00:01:13.010Z,3.00
2022-10-19T00:02:13.126Z,3.10
2022-10-19T00:03:12.999Z,3.30
2022-10-19T00:04:13.040Z,3.40
2022-10-19T00:05:12.987Z,3.20
2022-10-19T00:06:12.972Z,3.20
2022-10-19T00:07:12.972Z,3.10
2022-10-19T00:08:13.164Z,3.20
2022-10-19T00:09:12.933Z,3.10
2022-10-19T00:10:12.942Z,3.20
2022-10-19T00:11:12.900Z,3.30
2022-10-19T00:12:12.941Z,3.20
2022-10-19T00:13:12.901Z,2.90
2022-10-19T00:14:12.880Z,3.10
2022-10-19T00:15:12.867Z,3.60
2022-10-19T00:16:12.860Z,3.10
2022-10-19T00:17:12.852Z,3.20
2022-10-19T00:18:12.872Z,3.10
2022-10-19T00:19:12.814Z,3.50
2022-10-19T00:20:12.805Z,3.20
2022-10-19T00:21:12.793Z,3.80
2022-10-19T00:22:14.004Z,3.10
2022-10-19T00:23:12.775Z,3.50
2022-10-19T00:24:12.779Z,3.30
2022-10-19T00:25:12.749Z,3.20
2022-10-19T00:26:12.739Z,3.40
2022-10-19T00:27:12.756Z,3.40
2022-10-19T00:28:12.726Z,3.90
2022-10-19T00:29:12.794Z,3.20
2022-10-19T00:30:12.702Z,3.80
2022-10-19T00:31:12.686Z,2.90
2022-10-19T00:32:12.687Z,3.20
2022-10-19T00:33:12.666Z,3.00
2022-10-19T00:34:12.687Z,3.60
2022-10-19T00:35:12.638Z,2.90
2022-10-19T00:36:12.634Z,2.70
2022-10-19T00:37:12.632Z,3.10
2022-10-19T00:38:12.623Z,3.30
2022-10-19T00:39:12.597Z,2.90
2022-10-19T00:40:12.646Z,3.20
2022-10-19T00:41:12.581Z,3.30
2022-10-19T00:42:12.584Z,3.20
2022-10-19T00:43:12.549Z,3.30
2022-10-19T00:44:12.539Z,3.10
2022-10-19T00:45:12.520Z,3.30
2022-10-19T00:46:12.550Z,3.30
2022-10-19T00:47:12.525Z,3.40
2022-10-19T00:48:12.509Z,3.50
2022-10-19T00:49:12.496Z,3.60
2022-10-19T00:50:12.493Z,3.30
2022-10-19T00:51:12.461Z,3.30
2022-10-19T00:52:12.502Z,3.20
2022-10-19T00:53:12.439Z,3.40
2022-10-19T00:54:12.433Z,3.40
2022-10-19T00:55:12.422Z,3.00
2022-10-19T00:56:12.401Z,3.00
2022-10-19T00:57:12.391Z,3.70
2022-10-19T00:58:12.434Z,3.20
2022-10-19T00:59:12.383Z,2.70
2022-10-19T01:00:12.384Z,3.10
2022-10-19T01:01:12.407Z,2.90
2022-10-19T01:02:12.342Z,3.30
2022-10-19T01:03:12.343Z,3.30
2022-10-19T01:04:12.371Z,3.60
2022-10-19T01:05:12.314Z,3.50
2022-10-19T01:06:12.319Z,3.30
2022-10-19T01:07:12.288Z,3.20
2022-10-19T01:08:12.286Z,3.40
2022-10-19T01:09:12.947Z,3.60
2022-10-19T01:10:12.285Z,3.20
2022-10-19T01:11:12.245Z,3.50
2022-10-19T01:12:12.237Z,3.40
2022-10-19T01:13:12.243Z,3.60
2022-10-19T01:14:12.228Z,3.10
2022-10-19T01:15:12.216Z,3.30
2022-10-19T01:16:12.187Z,3.70
2022-10-19T01:17:12.214Z,3.30
2022-10-19T01:18:12.166Z,3.50
2022-10-19T01:19:12.158Z,3.70
2022-10-19T01:20:12.157Z,3.40
2022-10-19T01:21:12.157Z,3.50
2022-10-19T01:22:12.131Z,3.30
2022-10-19T01:23:12.117Z,3.30
2022-10-19T01:24:12.107Z,3.20
2022-10-19T01:25:13.043Z,3.80
2022-10-19T01:26:12.119Z,3.20
2022-10-19T01:27:12.079Z,3.30
2022-10-19T01:28:12.059Z,3.50
2022-10-19T01:29:12.080Z,3.40
2022-10-19T01:30:12.052Z,3.60
2022-10-19T01:31:12.020Z,3.10
2022-10-19T01:32:12.059Z,4.00
2022-10-19T01:33:12.006Z,3.80
2022-10-19T01:34:12.003Z,3.40
2022-10-19T01:35:11.980Z,3.30
2022-10-19T01:36:11.983Z,3.20
2022-10-19T01:37:11.961Z,3.30
2022-10-19T01:38:11.982Z,3.50
2022-10-19T01:39:11.942Z,3.10
2022-10-19T01:40:11.936Z,3.00
2022-10-19T01:41:11.921Z,3.00
2022-10-19T01:42:11.902Z,3.70
2022-10-19T01:43:11.909Z,3.50
2022-10-19T01:44:11.941Z,3.00
2022-10-19T01:45:11.861Z,3.30
2022-10-19T01:46:11.862Z,3.20
2022-10-19T01:47:11.842Z,3.90
2022-10-19T01:48:11.844Z,3.40
2022-10-19T01:49:11.822Z,3.20
2022-10-19T01:50:11.843Z,3.40
2022-10-19T01:51:11.802Z,3.00
2022-10-19T01:52:11.792Z,3.30
2022-10-19T01:53:11.776Z,3.50
2022-10-19T01:54:11.769Z,3.40
2022-10-19T01:55:11.784Z,3.50
2022-10-19T01:56:11.783Z,3.60
2022-10-19T01:57:11.735Z,3.40
2022-10-19T01:58:11.727Z,3.20
2022-10-19T01:59:11.724Z,4.10
2022-10-19T02:00:11.718Z,3.10
2022-10-19T02:02:11.719Z,2.80
2022-10-19T02:03:11.668Z,3.20
2022-10-19T02:04:11.664Z,3.50
2022-10-19T02:05:11.686Z,3.70
2022-10-19T02:06:11.656Z,3.40
2022-10-19T02:07:11.642Z,3.20
2022-10-19T02:08:11.617Z,3.20
2022-10-19T02:09:11.636Z,3.10
2022-10-19T02:10:11.687Z,3.60
2022-10-19T02:11:11.578Z,3.60
2022-10-19T02:12:11.598Z,3.30
2022-10-19T02:13:11.580Z,3.50
2022-10-19T02:14:11.568Z,3.50
2022-10-19T02:15:11.540Z,3.40
2022-10-19T02:16:11.579Z,3.30
2022-10-19T02:17:11.529Z,3.30
2022-10-19T02:18:11.511Z,3.70
2022-10-19T02:19:11.517Z,3.80
2022-10-19T02:20:11.499Z,3.30
2022-10-19T02:21:11.481Z,3.60
2022-10-19T02:22:11.517Z,3.70
2022-10-19T02:23:11.456Z,3.70
2022-10-19T02:24:11.437Z,3.50
2022-10-19T02:25:11.453Z,3.60
2022-10-19T02:26:11.441Z,3.50
2022-10-19T02:27:11.414Z,3.90
2022-10-19T02:28:11.390Z,3.80
2022-10-19T02:29:11.392Z,3.90
2022-10-19T02:30:11.385Z,3.60
2022-10-19T02:31:11.366Z,3.60
2022-10-19T02:32:11.368Z,3.60
2022-10-19T02:33:11.363Z,4.20
2022-10-19T02:34:11.344Z,3.60
2022-10-19T02:35:11.337Z,3.70
2022-10-19T02:36:12.263Z,3.80
2022-10-19T02:37:11.294Z,3.40
2022-10-19T02:38:11.301Z,4.20
2022-10-19T02:39:11.283Z,3.70
2022-10-19T02:40:11.264Z,3.70
2022-10-19T02:41:11.255Z,3.60
2022-10-19T02:42:11.246Z,3.40
2022-10-19T02:43:11.294Z,4.10
2022-10-19T02:44:11.225Z,3.90
2022-10-19T02:45:11.224Z,3.80
2022-10-19T02:46:11.196Z,4.10
2022-10-19T02:47:11.210Z,4.00
2022-10-19T02:48:11.169Z,4.20
2022-10-19T02:49:11.198Z,4.20
2022-10-19T02:50:11.166Z,4.10
2022-10-19T02:51:11.135Z,3.90
2022-10-19T02:52:11.125Z,4.10
2022-10-19T02:53:11.116Z,3.90
2022-10-19T02:54:11.119Z,3.80
2022-10-19T02:55:11.128Z,3.80
2022-10-19T02:56:11.076Z,4.10
2022-10-19T02:57:11.072Z,4.40
2022-10-19T02:58:11.049Z,3.90
2022-10-19T02:59:11.059Z,4.40
2022-10-19T03:00:11.035Z,4.60
2022-10-19T03:01:11.164Z,5.10
2022-10-19T03:02:11.020Z,4.70
2022-10-19T03:03:11.013Z,5.00
2022-10-19T03:04:10.990Z,5.00
2022-10-19T03:05:10.994Z,5.00
2022-10-19T03:06:10.970Z,5.90
2022-10-19T03:07:11.016Z,5.90
2022-10-19T03:08:10.943Z,5.20
2022-10-19T03:09:10.944Z,5.90
2022-10-19T03:10:10.922Z,5.40
2022-10-19T03:11:10.946Z,5.30
2022-10-19T03:12:10.916Z,5.60
2022-10-19T03:13:10.922Z,5.20
2022-10-19T03:14:10.882Z,5.20
2022-10-19T03:15:10.871Z,5.50
2022-10-19T03:16:10.911Z,6.10
2022-10-19T03:17:10.853Z,6.40
2022-10-19T03:18:10.836Z,6.10
2022-10-19T03:19:10.833Z,6.40
2022-10-19T03:20:10.828Z,6.20
2022-10-19T03:21:10.803Z,7.10
2022-10-19T03:22:10.830Z,6.50
2022-10-19T03:23:10.807Z,5.70
2022-10-19T03:24:10.784Z,5.90
2022-10-19T03:25:10.788Z,6.40
2022-10-19T03:26:12.272Z,7.30
2022-10-19T03:27:10.736Z,7.00
2022-10-19T03:28:10.729Z,6.80
2022-10-19T03:29:10.730Z,7.10
2022-10-19T03:30:10.767Z,6.90
2022-10-19T03:31:10.695Z,6.60
2022-10-19T03:32:10.720Z,6.70
2022-10-19T03:33:10.684Z,6.80
2022-10-19T03:34:10.664Z,6.30
2022-10-19T03:35:10.676Z,6.80
2022-10-19T03:36:10.637Z,7.10
2022-10-19T03:37:10.648Z,7.00
2022-10-19T03:38:10.626Z,6.90
2022-10-19T03:39:11.616Z,6.90
2022-10-19T03:40:10.604Z,6.70
2022-10-19T03:41:10.595Z,6.60
2022-10-19T03:42:10.602Z,7.10
2022-10-19T03:43:10.561Z,7.70
2022-10-19T03:44:10.557Z,7.10
2022-10-19T03:45:10.576Z,7.10
2022-10-19T03:46:10.539Z,7.20
2022-10-19T03:47:10.552Z,7.50
2022-10-19T03:48:10.530Z,6.90
2022-10-19T03:49:10.490Z,7.10
2022-10-19T03:50:10.519Z,7.20
2022-10-19T03:51:10.481Z,7.10
2022-10-19T03:52:10.456Z,6.80
2022-10-19T03:53:10.450Z,6.80
2022-10-19T03:54:10.480Z,6.60
2022-10-19T03:55:10.433Z,7.40
2022-10-19T03:56:10.623Z,6.70
2022-10-19T03:57:10.411Z,6.80
2022-10-19T03:58:10.394Z,7.30
2022-10-19T03:59:10.383Z,7.90
2022-10-19T04:00:11.332Z,7.40
2022-10-19T04:01:10.445Z,7.60
2022-10-19T04:02:10.399Z,7.40
2022-10-19T04:03:10.347Z,6.90
2022-10-19T04:04:10.326Z,7.30
2022-10-19T04:05:10.328Z,7.70
2022-10-19T04:06:10.325Z,7.40
2022-10-19T04:07:10.327Z,7.00
2022-10-19T04:08:10.279Z,7.30
2022-10-19T04:09:10.284Z,7.20
2022-10-19T04:10:10.291Z,8.00
2022-10-19T04:11:10.269Z,7.30
2022-10-19T04:12:10.262Z,7.80
2022-10-19T04:13:11.222Z,7.00
2022-10-19T04:15:10.259Z,6.80
2022-10-19T04:16:10.208Z,7.10
2022-10-19T04:17:10.188Z,7.50
2022-10-19T04:18:10.177Z,8.10
2022-10-19T04:19:10.190Z,7.90
2022-10-19T04:20:10.148Z,7.50
2022-10-19T04:21:10.178Z,7.90
2022-10-19T04:22:10.131Z,7.10
2022-10-19T04:23:10.443Z,7.50
2022-10-19T04:24:11.096Z,7.50
2022-10-19T04:25:10.133Z,7.00
2022-10-19T04:26:10.129Z,7.40
2022-10-19T04:27:10.151Z,8.00
2022-10-19T04:28:10.059Z,7.50
2022-10-19T04:29:10.327Z,7.00
2022-10-19T04:30:10.112Z,7.60
2022-10-19T04:31:10.045Z,7.60
2022-10-19T04:32:10.149Z,8.10
2022-10-19T04:33:10.042Z,7.30
2022-10-19T04:34:10.037Z,7.20
2022-10-19T04:35:10.022Z,7.70
2022-10-19T04:36:09.972Z,7.70
2022-10-19T04:37:09.962Z,7.10
2022-10-19T04:38:09.994Z,7.30
2022-10-19T04:39:09.951Z,7.90
2022-10-19T04:40:14.208Z,7.70
2022-10-19T04:41:10.922Z,7.80
2022-10-19T04:42:10.061Z,7.70
2022-10-19T04:43:10.905Z,7.20
2022-10-19T04:44:09.930Z,7.60
2022-10-19T04:45:09.877Z,8.30
2022-10-19T04:46:09.868Z,7.90
2022-10-19T04:47:09.907Z,7.70
2022-10-19T04:48:09.843Z,7.50
2022-10-19T04:49:09.839Z,7.40
2022-10-19T04:50:09.814Z,7.70
2022-10-19T04:51:09.816Z,7.90
2022-10-19T04:52:09.808Z,7.10
2022-10-19T04:53:09.849Z,7.50
2022-10-19T04:54:09.773Z,6.90
2022-10-19T04:55:09.813Z,7.60
2022-10-19T04:56:09.766Z,7.60
2022-10-19T04:57:09.747Z,7.50
2022-10-19T04:58:09.739Z,7.30
2022-10-19T04:59:10.463Z,7.50
2022-10-19T05:00:09.713Z,7.50
2022-10-19T05:01:09.765Z,7.70
2022-10-19T05:02:09.711Z,7.30
2022-10-19T05:03:09.679Z,7.30
2022-10-19T05:04:09.668Z,7.50
2022-10-19T05:05:09.663Z,7.30
2022-10-19T05:06:09.666Z,7.50
2022-10-19T05:07:09.734Z,7.60
2022-10-19T05:08:09.618Z,7.30
2022-10-19T05:09:09.624Z,7.60
2022-10-19T05:10:09.589Z,7.60
2022-10-19T05:11:09.609Z,7.10
2022-10-19T05:12:09.567Z,6.70
2022-10-19T05:13:09.564Z,7.30
2022-10-19T05:14:09.553Z,7.30
2022-10-19T05:15:09.551Z,7.10
2022-10-19T05:16:09.551Z,7.60
2022-10-19T05:17:09.530Z,7.20
2022-10-19T05:18:09.531Z,7.50
2022-10-19T05:19:09.508Z,7.50
2022-10-19T05:20:09.488Z,7.10
2022-10-19T05:21:09.527Z,7.70
2022-10-19T05:22:09.470Z,7.30
2022-10-19T05:23:09.462Z,7.00
2022-10-19T05:24:09.451Z,7.90
2022-10-19T05:25:09.454Z,7.60
2022-10-19T05:26:09.438Z,7.60
2022-10-19T05:27:09.452Z,7.00
2022-10-19T05:28:10.358Z,7.70
2022-10-19T05:29:09.444Z,7.70
2022-10-19T05:30:09.370Z,6.70
2022-10-19T05:31:09.364Z,8.10
2022-10-19T05:32:09.374Z,7.60
2022-10-19T05:33:09.381Z,7.50
2022-10-19T05:34:09.355Z,7.70
2022-10-19T05:35:09.330Z,7.90
2022-10-19T05:36:09.314Z,7.10
2022-10-19T05:37:09.313Z,7.90
2022-10-19T05:38:09.318Z,7.60
2022-10-19T05:39:09.320Z,7.60
2022-10-19T05:40:10.216Z,8.30
2022-10-19T05:41:09.253Z,8.20
2022-10-19T05:42:09.241Z,7.70
2022-10-19T05:43:09.244Z,7.20
2022-10-19T05:44:09.224Z,8.30
2022-10-19T05:45:09.233Z,8.40
2022-10-19T05:46:09.193Z,8.20
2022-10-19T05:47:10.136Z,8.30
2022-10-19T05:48:09.176Z,7.70
2022-10-19T05:49:09.178Z,8.50
2022-10-19T05:50:09.148Z,8.20
2022-10-19T05:51:09.157Z,7.40
2022-10-19T05:52:09.129Z,8.20
2022-10-19T05:53:09.140Z,8.50
2022-10-19T05:54:09.126Z,8.50
2022-10-19T05:55:09.096Z,8.20
2022-10-19T05:56:09.087Z,8.10
2022-10-19T05:57:09.175Z,9.00
2022-10-19T05:58:09.071Z,9.30
2022-10-19T05:59:09.080Z,9.20
2022-10-19T06:00:09.042Z,8.40
2022-10-19T06:01:09.048Z,8.20
2022-10-19T06:02:09.097Z,9.00
2022-10-19T06:03:09.010Z,8.80
2022-10-19T06:04:09.047Z,8.80
2022-10-19T06:05:09.012Z,8.60
2022-10-19T06:06:08.982Z,8.60
2022-10-19T06:07:08.972Z,9.50
2022-10-19T06:08:08.957Z,8.10
2022-10-19T06:09:08.952Z,8.20
2022-10-19T06:10:08.928Z,8.50
2022-10-19T06:11:08.928Z,8.60
2022-10-19T06:12:08.929Z,8.50
2022-10-19T06:13:08.900Z,8.90
2022-10-19T06:14:08.924Z,8.90
2022-10-19T06:15:08.873Z,9.20
2022-10-19T06:16:08.863Z,8.70
2022-10-19T06:17:08.853Z,8.60
2022-10-19T06:18:08.852Z,9.30
2022-10-19T06:19:08.848Z,9.00
2022-10-19T06:20:08.844Z,8.00
2022-10-19T06:21:08.812Z,9.10
2022-10-19T06:22:08.827Z,8.60
2022-10-19T06:23:08.795Z,8.40
2022-10-19T06:24:08.777Z,8.50
2022-10-19T06:25:08.774Z,8.30
2022-10-19T06:26:08.794Z,8.60
2022-10-19T06:27:08.807Z,8.40
2022-10-19T06:28:08.735Z,8.50
2022-10-19T06:29:08.724Z,7.80
2022-10-19T06:30:08.712Z,8.10
2022-10-19T06:31:09.456Z,8.40
2022-10-19T06:32:08.737Z,8.10
2022-10-19T06:33:08.688Z,8.10
2022-10-19T06:34:08.742Z,8.60
2022-10-19T06:35:08.667Z,8.10
2022-10-19T06:36:08.648Z,8.30
2022-10-19T06:37:08.634Z,7.80
2022-10-19T06:38:08.661Z,7.90
2022-10-19T06:39:08.619Z,7.80
2022-10-19T06:40:08.661Z,7.80
2022-10-19T06:41:08.593Z,7.80
2022-10-19T06:42:08.588Z,7.80
2022-10-19T06:43:08.566Z,7.90
2022-10-19T06:44:08.690Z,7.80
2022-10-19T06:45:08.594Z,7.80
2022-10-19T06:46:08.532Z,7.90
2022-10-19T06:47:08.573Z,7.60
2022-10-19T06:48:08.510Z,8.00
2022-10-19T06:49:08.501Z,8.60
2022-10-19T06:50:08.493Z,8.20
2022-10-19T06:51:08.566Z,8.00
2022-10-19T06:52:08.477Z,8.00
2022-10-19T06:53:08.495Z,8.00
2022-10-19T06:54:08.450Z,8.00
2022-10-19T06:55:08.431Z,8.50
2022-10-19T06:56:08.422Z,7.80
2022-10-19T06:57:08.412Z,7.80
2022-10-19T06:58:08.404Z,7.70
2022-10-19T06:59:08.473Z,8.30
2022-10-19T07:00:08.378Z,7.70
2022-10-19T07:01:09.432Z,8.00
2022-10-19T07:02:08.359Z,7.40
2022-10-19T07:03:08.371Z,7.80
2022-10-19T07:04:08.412Z,7.80
2022-10-19T07:05:08.323Z,7.80
2022-10-19T07:06:08.341Z,8.40
2022-10-19T07:07:08.329Z,7.80
2022-10-19T07:08:08.395Z,7.70
2022-10-19T07:09:08.325Z,7.70
2022-10-19T07:10:08.272Z,7.60
2022-10-19T07:11:08.517Z,7.50
2022-10-19T07:12:08.300Z,7.00
2022-10-19T07:14:08.314Z,8.00
2022-10-19T07:15:08.246Z,7.10
2022-10-19T07:16:08.222Z,7.10
2022-10-19T07:17:08.227Z,7.30
2022-10-19T07:18:08.185Z,7.50
2022-10-19T07:19:08.193Z,8.40
2022-10-19T07:20:08.166Z,7.90
2022-10-19T07:21:08.184Z,7.70
2022-10-19T07:22:08.148Z,7.50
2022-10-19T07:23:08.126Z,7.10
2022-10-19T07:24:08.202Z,7.10
2022-10-19T07:25:08.135Z,8.10
2022-10-19T07:26:08.091Z,7.70
2022-10-19T07:27:08.409Z,7.70
2022-10-19T07:28:08.064Z,7.50
2022-10-19T07:29:08.045Z,7.40
2022-10-19T07:30:08.039Z,8.00
2022-10-19T07:31:08.051Z,7.60
2022-10-19T07:32:08.039Z,8.10
2022-10-19T07:33:08.095Z,7.70
2022-10-19T07:34:07.995Z,7.70
2022-10-19T07:35:07.984Z,7.60
2022-10-19T07:36:08.942Z,7.50
2022-10-19T07:37:07.970Z,7.80
2022-10-19T07:38:07.951Z,7.00
2022-10-19T07:39:08.005Z,7.30
2022-10-19T07:40:08.271Z,8.10
2022-10-19T07:41:07.931Z,7.60
2022-10-19T07:42:07.926Z,8.10
2022-10-19T07:43:07.902Z,8.10
2022-10-19T07:44:09.910Z,7.80
2022-10-19T07:45:07.892Z,7.90
2022-10-19T07:46:07.864Z,7.80
2022-10-19T07:47:07.879Z,8.00
2022-10-19T07:48:07.875Z,7.50
2022-10-19T07:49:07.846Z,7.80
2022-10-19T07:50:07.824Z,8.60
2022-10-19T07:51:07.805Z,8.50
2022-10-19T07:52:07.805Z,8.90
2022-10-19T07:53:07.792Z,8.40
2022-10-19T07:54:07.817Z,8.30
2022-10-19T07:55:07.786Z,8.30
2022-10-19T07:56:07.786Z,8.40
2022-10-19T07:57:07.770Z,7.90
2022-10-19T07:58:07.770Z,8.40
2022-10-19T07:59:07.787Z,7.60
2022-10-19T08:00:07.725Z,8.00
2022-10-19T08:01:09.167Z,8.30
2022-10-19T08:02:07.762Z,8.10
2022-10-19T08:05:11.815Z,7.70
2022-10-19T08:06:07.652Z,7.40
2022-10-19T08:07:07.668Z,7.90
2022-10-19T08:08:07.635Z,8.30
2022-10-19T08:09:07.660Z,7.30
2022-10-19T08:10:07.610Z,7.40
2022-10-19T08:11:07.599Z,7.00
2022-10-19T08:12:12.379Z,6.80
2022-10-19T08:13:08.625Z,7.00
2022-10-19T08:14:08.302Z,6.80
2022-10-19T08:15:07.547Z,7.40
2022-10-19T08:16:07.537Z,6.60
2022-10-19T08:17:07.892Z,6.90
2022-10-19T08:18:07.512Z,6.70
2022-10-19T08:19:07.501Z,6.70
2022-10-19T08:20:07.491Z,6.30
2022-10-19T08:21:08.431Z,6.30
2022-10-19T08:22:07.473Z,6.80
2022-10-19T08:23:07.497Z,6.60
2022-10-19T08:24:08.207Z,7.70
2022-10-19T08:25:07.441Z,6.50
2022-10-19T08:26:07.502Z,6.80
2022-10-19T08:27:07.445Z,6.10
2022-10-19T08:28:07.440Z,5.70
2022-10-19T08:29:07.433Z,6.00
2022-10-19T08:30:07.473Z,5.60
2022-10-19T08:31:07.374Z,5.20
2022-10-19T08:32:07.365Z,5.40
2022-10-19T08:33:07.346Z,5.10
2022-10-19T08:34:07.354Z,5.10
2022-10-19T08:35:10.690Z,5.80
2022-10-19T08:36:07.317Z,5.60
2022-10-19T08:37:19.710Z,4.90
2022-10-19T08:38:08.296Z,5.10
2022-10-19T08:39:07.305Z,5.00
2022-10-19T08:40:07.576Z,4.60
2022-10-19T08:41:08.207Z,4.50
2022-10-19T08:42:07.245Z,4.60
2022-10-19T08:43:07.246Z,4.10
2022-10-19T08:44:09.355Z,4.60
2022-10-19T08:45:07.250Z,4.00
2022-10-19T08:46:07.238Z,4.20
2022-10-19T08:47:07.763Z,4.60
2022-10-19T08:48:07.188Z,3.80
2022-10-19T08:49:07.178Z,4.20
2022-10-19T08:50:07.164Z,3.90
2022-10-19T08:51:07.178Z,4.30
2022-10-19T08:52:07.147Z,3.90
2022-10-19T08:53:07.321Z,4.40
2022-10-19T08:54:07.109Z,4.00
2022-10-19T08:55:07.166Z,4.10
2022-10-19T08:56:07.101Z,3.60
2022-10-19T08:57:07.134Z,3.80
2022-10-19T08:58:07.580Z,3.60
2022-10-19T08:59:07.101Z,3.40
2022-10-19T09:00:07.051Z,3.80
2022-10-19T09:01:07.035Z,3.40
2022-10-19T09:02:07.048Z,3.80
2022-10-19T09:03:07.015Z,3.60
2022-10-19T09:04:07.011Z,3.40
2022-10-19T09:05:06.994Z,3.50
2022-10-19T09:06:08.000Z,3.20
2022-10-19T09:07:07.392Z,3.50
2022-10-19T09:08:06.979Z,3.70
2022-10-19T09:09:07.363Z,3.70
2022-10-19T09:10:06.950Z,3.30
2022-10-19T09:11:07.569Z,3.30
2022-10-19T09:12:07.236Z,3.00
2022-10-19T09:13:06.907Z,3.30
2022-10-19T09:14:06.923Z,3.20
2022-10-19T09:15:06.915Z,3.00
2022-10-19T09:16:06.883Z,2.80
2022-10-19T09:17:06.979Z,3.10
2022-10-19T09:18:06.864Z,3.10
2022-10-19T09:19:06.848Z,3.20
2022-10-19T09:20:06.881Z,3.00
2022-10-19T09:21:06.835Z,2.80
2022-10-19T09:22:06.817Z,2.90
2022-10-19T09:23:12.391Z,2.90
2022-10-19T09:24:07.803Z,3.10
2022-10-19T09:25:07.021Z,2.70
2022-10-19T09:26:06.788Z,3.10
2022-10-19T09:27:06.781Z,3.00
2022-10-19T09:28:06.778Z,2.90
2022-10-19T09:29:06.740Z,2.80
2022-10-19T09:30:06.749Z,3.20
2022-10-19T09:31:06.736Z,2.40
2022-10-19T09:32:07.089Z,3.00
2022-10-19T09:33:06.711Z,2.90
2022-10-19T09:34:06.719Z,2.70
2022-10-19T09:35:06.659Z,2.60
2022-10-19T09:36:06.642Z,2.70
2022-10-19T09:37:06.784Z,2.40
2022-10-19T09:38:06.665Z,2.60
2022-10-19T09:39:06.621Z,2.60
2022-10-19T09:40:06.606Z,2.40
2022-10-19T09:41:06.601Z,2.60
2022-10-19T09:42:06.592Z,2.50
2022-10-19T09:43:06.628Z,2.80
2022-10-19T09:44:06.559Z,2.30
2022-10-19T09:45:06.773Z,2.30
2022-10-19T09:46:16.484Z,2.70
2022-10-19T09:47:11.533Z,2.20
2022-10-19T09:48:12.850Z,2.60
2022-10-19T09:49:07.513Z,2.40
2022-10-19T09:50:06.503Z,2.10
2022-10-19T09:51:06.494Z,2.30
2022-10-19T09:52:06.524Z,3.00
2022-10-19T09:53:06.728Z,2.30
2022-10-19T09:54:06.454Z,2.00
2022-10-19T09:55:06.436Z,2.40
2022-10-19T09:56:06.526Z,2.80
2022-10-19T09:57:06.422Z,2.30
2022-10-19T09:58:06.420Z,2.00
2022-10-19T09:59:06.421Z,2.20
2022-10-19T10:00:06.459Z,2.00
2022-10-19T10:01:06.410Z,1.80
2022-10-19T10:02:06.368Z,2.10
2022-10-19T10:03:06.372Z,2.10
2022-10-19T10:04:06.369Z,2.00
2022-10-19T10:05:06.347Z,2.20
2022-10-19T10:06:06.497Z,2.10
2022-10-19T10:07:06.311Z,2.00
2022-10-19T10:08:06.301Z,1.90
2022-10-19T10:09:06.332Z,2.20
2022-10-19T10:10:06.329Z,2.10
2022-10-19T10:11:11.542Z,1.60
2022-10-19T10:12:07.213Z,2.20
2022-10-19T10:13:06.247Z,1.90
2022-10-19T10:14:09.133Z,2.30
2022-10-19T10:15:06.314Z,1.90
2022-10-19T10:16:06.203Z,2.40
2022-10-19T10:17:06.213Z,2.20
2022-10-19T10:18:06.221Z,2.00
2022-10-19T10:19:06.193Z,2.10
2022-10-19T10:20:06.162Z,2.00
2022-10-19T10:21:07.231Z,2.00
2022-10-19T10:22:06.151Z,2.20
2022-10-19T10:23:06.145Z,1.90
2022-10-19T10:24:06.116Z,2.10
2022-10-19T10:25:06.495Z,2.50
2022-10-19T10:26:06.121Z,2.30
2022-10-19T10:27:06.101Z,2.10
2022-10-19T10:28:06.087Z,2.10
2022-10-19T10:29:06.094Z,2.20
2022-10-19T10:30:06.054Z,2.20
2022-10-19T10:31:06.106Z,2.10
2022-10-19T10:32:06.031Z,2.40
2022-10-19T10:33:13.333Z,2.30
2022-10-19T10:34:16.558Z,2.10
2022-10-19T10:35:07.034Z,2.10
2022-10-19T10:36:05.983Z,2.10
2022-10-19T10:37:06.040Z,1.90
2022-10-19T10:38:05.965Z,1.90
2022-10-19T10:39:06.005Z,2.30
2022-10-19T10:40:06.011Z,12.20
2022-10-19T10:41:05.958Z,7.30
2022-10-19T10:42:05.921Z,8.70
2022-10-19T10:43:05.917Z,4.10
2022-10-19T10:44:05.898Z,2.30
2022-10-19T10:45:05.950Z,2.60
2022-10-19T10:46:05.870Z,2.80
2022-10-19T10:47:05.891Z,5.30
2022-10-19T10:49:05.842Z,4.20
2022-10-19T10:50:05.876Z,2.50
2022-10-19T10:51:05.868Z,2.40
2022-10-19T10:52:05.826Z,2.50
2022-10-19T10:53:05.790Z,2.10
2022-10-19T10:54:05.836Z,3.00
2022-10-19T10:55:05.805Z,2.50
2022-10-19T10:56:05.788Z,2.50
2022-10-19T10:57:06.827Z,2.10
2022-10-19T10:58:05.768Z,2.60
2022-10-19T10:59:05.734Z,2.30
2022-10-19T11:00:05.804Z,1.90
2022-10-19T11:01:07.742Z,2.00
2022-10-19T11:02:05.742Z,1.90
2022-10-19T11:03:06.030Z,1.90
2022-10-19T11:04:05.667Z,1.90
2022-10-19T11:05:07.139Z,1.90
2022-10-19T11:06:05.652Z,2.00
2022-10-19T11:07:05.651Z,1.50
2022-10-19T11:08:05.636Z,1.80
2022-10-19T11:09:05.854Z,2.00
2022-10-19T11:10:05.607Z,1.70
2022-10-19T11:11:05.927Z,1.80
2022-10-19T11:12:05.587Z,2.00
2022-10-19T11:13:05.652Z,1.80
2022-10-19T11:14:05.558Z,1.90
2022-10-19T11:15:05.559Z,1.50
2022-10-19T11:16:05.584Z,1.60
2022-10-19T11:17:05.549Z,1.90
2022-10-19T11:18:05.558Z,1.80
2022-10-19T11:19:05.561Z,1.60
2022-10-19T11:20:05.499Z,1.90
2022-10-19T11:21:05.491Z,1.70
2022-10-19T11:22:05.731Z,1.90
2022-10-19T11:23:05.461Z,1.90
2022-10-19T11:24:05.478Z,1.80
2022-10-19T11:25:05.442Z,1.80
2022-10-19T11:26:05.439Z,1.70
2022-10-19T11:27:05.452Z,1.60
2022-10-19T11:28:05.401Z,1.80
2022-10-19T11:29:05.491Z,2.00
2022-10-19T11:30:05.387Z,1.80
2022-10-19T11:31:05.381Z,1.90
2022-10-19T11:32:05.373Z,1.40
2022-10-19T11:33:05.408Z,1.70
2022-10-19T11:34:05.527Z,1.80
2022-10-19T11:35:05.347Z,1.80
2022-10-19T11:36:05.329Z,1.70
2022-10-19T11:37:05.309Z,1.80
2022-10-19T11:38:19.452Z,1.50
2022-10-19T11:39:06.326Z,1.90
2022-10-19T11:40:05.282Z,1.90
2022-10-19T11:41:17.426Z,1.70
2022-10-19T11:42:06.261Z,1.50
2022-10-19T11:43:05.284Z,1.80
2022-10-19T11:44:05.244Z,1.80
2022-10-19T11:45:05.216Z,1.50
2022-10-19T11:46:05.206Z,1.60
2022-10-19T11:47:05.340Z,1.40
2022-10-19T11:48:05.207Z,1.80
2022-10-19T11:49:05.205Z,1.80
2022-10-19T11:50:05.268Z,1.90
2022-10-19T11:51:17.421Z,1.80
2022-10-19T11:52:06.151Z,1.60
2022-10-19T11:53:05.168Z,1.70
2022-10-19T11:54:05.114Z,2.20
2022-10-19T11:55:05.136Z,1.70
2022-10-19T11:56:05.122Z,2.20
2022-10-19T11:57:09.349Z,1.90
2022-10-19T11:58:06.069Z,1.90
2022-10-19T11:59:05.104Z,1.90
2022-10-19T12:00:14.693Z,1.90
2022-10-19T12:01:06.091Z,2.50
2022-10-19T12:02:05.124Z,1.80
2022-10-19T12:03:05.052Z,2.30
2022-10-19T12:04:05.031Z,2.00
2022-10-19T12:05:05.005Z,1.80
2022-10-19T12:06:04.980Z,1.50
2022-10-19T12:07:05.480Z,2.00
2022-10-19T12:08:04.977Z,1.80
2022-10-19T12:09:05.051Z,2.10
2022-10-19T12:10:04.975Z,1.60
2022-10-19T12:11:04.946Z,1.90
2022-10-19T12:12:04.937Z,2.20
2022-10-19T12:13:04.906Z,2.10
2022-10-19T12:14:05.569Z,1.90
2022-10-19T12:15:04.887Z,1.90
2022-10-19T12:16:04.895Z,1.70
2022-10-19T12:17:05.696Z,1.80
2022-10-19T12:18:05.816Z,2.20
2022-10-19T12:19:04.837Z,1.60
2022-10-19T12:20:04.876Z,2.00
2022-10-19T12:21:05.178Z,2.20
2022-10-19T12:22:05.178Z,2.00
2022-10-19T12:23:04.814Z,2.00
2022-10-19T12:24:04.849Z,2.00
2022-10-19T12:25:04.775Z,1.80
2022-10-19T12:26:04.866Z,2.00
2022-10-19T12:27:04.761Z,1.90
2022-10-19T12:28:05.502Z,2.00
2022-10-19T12:29:04.820Z,2.00
2022-10-19T12:30:04.790Z,2.00
2022-10-19T12:31:04.710Z,2.00
2022-10-19T12:32:04.718Z,1.90
2022-10-19T12:33:04.734Z,2.00
2022-10-19T12:34:04.670Z,1.90
2022-10-19T12:35:04.665Z,2.10
2022-10-19T12:36:04.681Z,2.00
2022-10-19T12:37:05.583Z,2.00
2022-10-19T12:38:04.634Z,2.10
2022-10-19T12:39:04.604Z,2.00
2022-10-19T12:40:04.657Z,1.70
2022-10-19T12:41:04.595Z,2.20
2022-10-19T12:42:04.588Z,2.10
2022-10-19T12:43:04.567Z,2.20
2022-10-19T12:44:05.522Z,2.20
2022-10-19T12:45:04.559Z,2.30
2022-10-19T12:46:04.564Z,1.90
2022-10-19T12:47:04.524Z,2.20
2022-10-19T12:48:04.516Z,2.30
2022-10-19T12:49:04.505Z,2.10
2022-10-19T12:50:04.528Z,2.10
2022-10-19T12:51:04.476Z,2.00
2022-10-19T12:52:04.471Z,1.80
2022-10-19T12:53:04.463Z,2.00
2022-10-19T12:54:04.445Z,1.80
2022-10-19T12:55:05.456Z,1.90
2022-10-19T12:56:04.510Z,1.60
2022-10-19T12:57:04.420Z,2.00
2022-10-19T12:58:04.406Z,1.90
2022-10-19T12:59:04.614Z,2.30
2022-10-19T13:00:04.479Z,2.00
2022-10-19T13:01:04.434Z,2.10
2022-10-19T13:02:04.365Z,2.20
2022-10-19T13:03:04.371Z,1.80
2022-10-19T13:04:04.354Z,2.10
2022-10-19T13:05:04.321Z,1.70
2022-10-19T13:06:04.342Z,1.90
2022-10-19T13:07:04.329Z,2.10
2022-10-19T13:08:04.800Z,2.10
2022-10-19T13:09:04.325Z,2.30
2022-10-19T13:10:04.304Z,2.30
2022-10-19T13:11:04.263Z,2.40
2022-10-19T13:12:04.254Z,2.10
2022-10-19T13:13:04.256Z,2.10
2022-10-19T13:14:04.252Z,2.20
2022-10-19T13:15:04.257Z,2.10
2022-10-19T13:16:04.240Z,2.20
2022-10-19T13:17:04.215Z,2.00
2022-10-19T13:18:04.177Z,1.90
2022-10-19T13:19:04.166Z,1.70
2022-10-19T13:20:04.207Z,2.00
2022-10-19T13:21:04.199Z,1.90
2022-10-19T13:22:04.148Z,2.00
2022-10-19T13:23:04.159Z,2.00
2022-10-19T13:24:04.129Z,1.80